Time;durP1;ratioP1;P1;durP2;ratioP2;P2;SDS_P1;SDS_P2;PMS_P1;PMS_P2;Temp;Humidity;BMP_temperature;BMP_pressure;BME280_temperature;BME280_humidity;BME280_pressure;Samples;Min_cycle;Max_cycle;Signal;HPM_P1;HPM_P2
2022/06/15 00:00:23;;;;;;;;;10.00;9.50;;;;;24.25;36.69;100835.50;5038809;28;47356;-87
2022/06/15 00:02:48;;;;;;;;;7.00;7.00;;;;;24.38;36.69;100858.91;5055246;28;45626;-87
2022/06/15 00:05:14;;;;;;;;;7.50;7.50;;;;;24.36;36.93;100860.09;5055073;28;45578;-87
2022/06/15 00:07:39;;;;;;;;;5.75;5.75;;;;;24.29;36.92;100852.03;5055737;28;45705;-87
2022/06/15 00:10:05;;;;;;;;;8.00;7.00;;;;;24.29;36.87;100852.03;5054403;28;47029;-89
2022/06/15 00:12:30;;;;;;;;;7.50;7.50;;;;;24.19;37.19;100844.28;5039789;28;45725;-89
2022/06/15 00:14:56;;;;;;;;;8.00;7.25;;;;;24.26;37.28;100855.06;5057993;28;45833;-89
2022/06/15 00:20:43;;;;;;;;;7.00;7.00;;;;;24.17;37.14;100850.84;5058061;28;45745;-89
2022/06/15 00:23:08;;;;;;;;;5.00;5.00;;;;;24.10;36.92;100849.94;5056794;28;45668;-88
2022/06/15 00:25:34;;;;;;;;;7.25;6.25;;;;;24.06;37.61;100846.81;5040262;28;46093;-87
2022/06/15 00:27:59;;;;;;;;;6.75;6.00;;;;;24.05;37.01;100852.38;5040661;28;47723;-87
2022/06/15 00:30:25;;;;;;;;;7.25;7.25;;;;;24.04;37.57;100856.06;5040492;28;46419;-87
2022/06/15 00:36:15;;;;;;;;;7.00;7.00;;;;;23.94;38.18;100861.72;5060091;28;45638;-87
2022/06/15 00:38:45;;;;;;;;;8.00;7.00;;;;;23.85;37.83;100849.50;5041082;28;47327;-87
2022/06/15 00:41:14;;;;;;;;;7.00;6.75;;;;;23.89;37.77;100863.31;5058625;28;46848;-88
2022/06/15 00:43:46;;;;;;;;;6.75;6.00;;;;;23.85;37.72;100862.88;5060312;28;45681;-89
2022/06/15 00:46:27;;;;;;;;;8.00;7.25;;;;;23.81;37.83;100864.25;5055614;28;45828;-89
2022/06/15 00:48:56;;;;;;;;;7.75;6.75;;;;;23.66;38.07;100842.06;5056075;28;45577;-88
2022/06/15 00:51:24;;;;;;;;;6.00;5.50;;;;;23.75;38.03;100863.16;5038332;28;47132;-88
2022/06/15 00:53:50;;;;;;;;;7.00;6.00;;;;;23.73;38.06;100857.19;5038509;28;45662;-88
2022/06/15 00:56:16;;;;;;;;;6.00;6.00;;;;;23.71;38.34;100869.91;5056428;28;45444;-88
2022/06/15 00:58:45;;;;;;;;;5.00;5.00;;;;;23.69;37.95;100868.44;5038083;28;48448;-88
2022/06/15 01:01:11;;;;;;;;;8.00;7.00;;;;;23.61;38.49;100856.00;5055830;28;45952;-86
2022/06/15 01:03:37;;;;;;;;;8.50;7.50;;;;;23.54;38.17;100855.06;5056223;28;45612;-87
2022/06/15 01:06:40;;;;;;;;;6.00;6.00;;;;;23.53;38.50;100855.28;5072169;28;45605;-88
2022/06/15 01:09:26;;;;;;;;;6.00;5.50;;;;;23.41;38.69;100853.06;5055038;28;46777;-87
2022/06/15 01:11:54;;;;;;;;;7.00;6.25;;;;;23.48;38.66;100860.38;5029718;28;47422;-88
2022/06/15 01:14:49;;;;;;;;;6.25;6.25;;;;;23.46;39.20;100870.41;5039909;28;45585;-86
2022/06/15 01:17:15;;;;;;;;;6.50;6.00;;;;;23.43;39.15;100864.38;4974721;28;45559;-87
2022/06/15 01:20:03;;;;;;;;;9.75;7.00;;;;;23.30;39.08;100853.53;4959067;28;47269;-86
2022/06/15 01:22:53;;;;;;;;;7.25;6.25;;;;;23.35;39.46;100864.50;4975348;28;45702;-88
2022/06/15 01:25:37;;;;;;;;;7.00;7.00;;;;;23.31;38.99;100865.88;4960739;28;45726;-88
2022/06/15 01:28:08;;;;;;;;;7.00;5.50;;;;;23.31;39.39;100865.88;4978392;28;46074;-88
2022/06/15 01:30:51;;;;;;;;;6.00;6.00;;;;;23.28;39.62;100860.88;4979717;28;45642;-88
2022/06/15 01:33:28;;;;;;;;;7.50;7.00;;;;;23.25;39.97;100861.28;4962646;28;46949;-88
2022/06/15 01:36:07;;;;;;;;;6.00;6.00;;;;;23.23;39.93;100859.78;4978358;28;46005;-88
2022/06/15 01:38:54;;;;;;;;;7.00;6.50;;;;;23.20;40.22;100850.31;4978106;28;45677;-89
2022/06/15 01:41:24;;;;;;;;;7.25;7.25;;;;;23.09;39.67;100847.25;4978272;28;46551;-87
2022/06/15 01:43:57;;;;;;;;;4.75;4.25;;;;;23.12;40.40;100850.38;4977474;28;46298;-87
2022/06/15 01:46:25;;;;;;;;;5.25;4.75;;;;;23.02;40.43;100836.47;4991459;28;45651;-88
2022/06/15 01:48:54;;;;;;;;;7.00;6.25;;;;;23.09;40.30;100850.75;4996789;28;45704;-87
2022/06/15 01:51:24;;;;;;;;;6.00;6.00;;;;;23.06;40.55;100847.59;4980601;28;47366;-86
2022/06/15 01:53:58;;;;;;;;;6.00;4.75;;;;;22.99;40.68;100840.34;4994568;28;48287;-89
2022/06/15 01:56:33;;;;;;;;;4.50;4.50;;;;;22.96;40.42;100837.19;5020714;28;45728;-89
2022/06/15 01:59:11;;;;;;;;;6.25;6.00;;;;;22.79;41.19;100811.66;5040058;28;45627;-86
2022/06/15 02:05:35;;;;;;;;;6.00;5.75;;;;;22.90;41.38;100833.41;5040084;28;45908;-87
2022/06/15 02:08:10;;;;;;;;;7.00;7.00;;;;;22.84;41.14;100828.81;5022697;28;45557;-88
2022/06/15 02:10:42;;;;;;;;;4.25;4.00;;;;;22.83;41.72;100837.03;5040697;28;45751;-89
2022/06/15 02:13:23;;;;;;;;;5.25;5.25;;;;;22.80;41.74;100835.53;5039975;28;45897;-88
2022/06/15 02:16:00;;;;;;;;;5.50;5.25;;;;;22.78;41.69;100829.53;5039500;28;46271;-90
2022/06/15 02:21:52;;;;;;;;;6.00;6.00;;;;;22.67;41.95;100821.13;5039214;28;45686;-89
2022/06/15 02:24:21;;;;;;;;;6.00;5.00;;;;;22.60;42.79;100821.84;5036172;28;47342;-89
2022/06/15 02:26:48;;;;;;;;;5.75;5.50;;;;;22.59;42.04;100825.53;5030159;28;48245;-87
2022/06/15 02:29:22;;;;;;;;;5.00;5.00;;;;;22.56;42.79;100827.75;5040763;28;45542;-89
2022/06/15 02:31:47;;;;;;;;;5.00;5.00;;;;;22.39;42.61;100802.19;5038736;28;45489;-89
2022/06/15 02:37:34;;;;;;;;;5.25;5.00;;;;;22.41;43.02;100825.03;5037326;28;45893;-88
2022/06/15 02:40:00;;;;;;;;;5.25;5.00;;;;;22.31;42.75;100820.94;5020051;28;45565;-88
2022/06/15 02:42:34;;;;;;;;;5.00;5.00;;;;;22.22;43.00;100814.84;5039969;28;45828;-89
2022/06/15 02:45:04;;;;;;;;;6.25;6.00;;;;;22.34;42.60;100828.59;5022772;28;47460;-88
2022/06/15 02:47:33;;;;;;;;;5.50;5.00;;;;;22.26;43.19;100816.13;5039707;28;47366;-88
2022/06/15 02:50:00;;;;;;;;;5.00;5.00;;;;;22.19;43.69;100796.50;5044093;28;45712;-89
2022/06/15 02:52:35;;;;;;;;;6.00;5.00;;;;;22.31;43.73;100824.44;5064147;28;45706;-90
2022/06/15 02:55:02;;;;;;;;;10.00;8.50;;;;;22.29;43.88;100822.97;5062073;28;48643;-89
2022/06/15 02:57:28;;;;;;;;;6.50;6.50;;;;;22.16;43.53;100802.22;5041735;28;47394;-89
2022/06/15 02:59:55;;;;;;;;;7.75;6.00;;;;;22.26;43.75;100826.81;5067219;28;45598;-89
2022/06/15 03:02:21;;;;;;;;;4.75;4.75;;;;;22.11;43.79;100796.59;5065866;28;45377;-89
2022/06/15 03:08:08;;;;;;;;;7.00;6.25;;;;;22.21;43.89;100828.38;5061552;28;45981;-89
2022/06/15 03:10:33;;;;;;;;;6.25;6.25;;;;;;;;5060578;28;45612;-89
2022/06/15 03:12:59;;;;;;;;;7.50;6.75;;;;;22.03;43.97;100808.13;5041864;28;45799;-89
2022/06/15 03:15:24;;;;;;;;;7.00;7.00;;;;;22.13;43.95;100818.59;5057623;28;48590;-89
2022/06/15 03:17:53;;;;;;;;;6.00;6.00;;;;;22.03;43.97;100816.16;5057972;28;47171;-88
2022/06/15 03:20:18;;;;;;;;;7.50;7.00;;;;;22.05;43.96;100826.66;5058091;28;45647;-89
2022/06/15 03:22:44;;;;;;;;;7.00;6.00;;;;;21.91;43.90;100790.88;5041937;28;45602;-90
2022/06/15 03:25:10;;;;;;;;;6.00;5.75;;;;;22.00;44.24;100821.84;5057125;28;47379;-88
2022/06/15 03:27:35;;;;;;;;;5.75;5.75;;;;;22.02;44.49;100825.19;5040944;28;47200;-89
2022/06/15 03:30:00;;;;;;;;;8.00;6.00;;;;;21.95;44.12;100812.72;5041319;28;45473;-90
2022/06/15 03:32:26;;;;;;;;;6.75;6.50;;;;;22.05;44.32;100834.66;5041610;28;45686;-89
2022/06/15 03:38:14;;;;;;;;;6.75;6.00;;;;;21.95;44.56;100826.06;5059088;28;45760;-90
2022/06/15 03:40:45;;;;;;;;;6.75;6.50;;;;;22.01;44.99;100833.38;5040933;28;45704;-89
2022/06/15 03:43:11;;;;;;;;;7.25;6.50;;;;;21.75;45.17;100801.66;5040479;28;46005;-89
2022/06/15 03:45:37;;;;;;;;;6.75;6.00;;;;;21.95;44.89;100828.72;5039936;28;47503;-89
2022/06/15 03:48:03;;;;;;;;;7.00;7.00;;;;;21.84;45.44;100813.09;5057675;28;46048;-90
2022/06/15 03:50:31;;;;;;;;;7.00;7.00;;;;;21.92;45.05;100829.03;5058305;28;45586;-89
2022/06/15 03:52:57;;;;;;;;;5.50;5.00;;;;;21.87;45.35;100831.41;5057603;28;45605;-90
2022/06/15 03:55:22;;;;;;;;;8.00;6.50;;;;;21.75;45.63;100818.47;5060914;28;45606;-88
2022/06/15 03:57:48;;;;;;;;;10.00;6.75;;;;;21.75;45.82;100826.47;5060974;28;45597;-89
2022/06/15 04:00:17;;;;;;;;;7.00;6.00;;;;;21.64;45.40;100812.72;5061285;28;45703;-87
2022/06/15 04:02:42;;;;;;;;;7.25;7.00;;;;;21.71;45.58;100838.50;5061669;28;45618;-89
2022/06/15 04:08:40;;;;;;;;;7.25;7.00;;;;;21.53;46.04;100810.47;5058295;28;46039;-88
2022/06/15 04:13:59;;;;;;;;;7.25;7.00;;;;;21.60;45.81;100836.22;5057760;28;45819;-87
2022/06/15 04:16:24;;;;;;;;;6.00;5.50;;;;;21.50;46.07;100814.28;5039902;28;47305;-89
2022/06/15 04:18:50;;;;;;;;;7.50;7.00;;;;;21.51;46.20;100823.13;5040255;28;48239;-89
2022/06/15 04:21:15;;;;;;;;;8.50;7.50;;;;;21.38;46.21;100821.00;5059002;28;45748;-90
2022/06/15 04:23:42;;;;;;;;;8.00;8.00;;;;;21.48;46.35;100826.97;5039745;28;45865;-89
2022/06/15 04:26:11;;;;;;;;;8.00;7.00;;;;;21.45;46.64;100835.31;5038826;28;46672;-89
2022/06/15 04:28:39;;;;;;;;;5.75;5.75;;;;;21.38;46.45;100820.19;5056704;28;45471;-88
2022/06/15 04:31:05;;;;;;;;;6.25;6.25;;;;;21.34;46.53;100822.38;5038760;28;45631;-90
2022/06/15 04:33:31;;;;;;;;;7.25;7.25;;;;;21.31;46.77;100834.22;5057254;28;45680;-88
2022/06/15 04:35:56;;;;;;;;;8.00;6.50;;;;;21.25;46.67;100818.91;5056050;28;48276;-89
2022/06/15 04:38:22;;;;;;;;;7.25;7.00;;;;;21.28;46.88;100834.53;5042707;28;47900;-89
2022/06/15 04:40:47;;;;;;;;;8.50;6.75;;;;;21.20;47.30;100815.94;5062116;28;45519;-89
2022/06/15 04:43:13;;;;;;;;;7.25;7.25;;;;;21.25;46.83;100826.91;5062450;28;45664;-89
2022/06/15 04:45:38;;;;;;;;;5.75;5.75;;;;;21.22;47.07;100829.91;5053760;28;45626;-88
2022/06/15 04:48:05;;;;;;;;;9.00;8.75;;;;;21.07;47.44;100806.78;5040803;28;46813;-89
2022/06/15 04:53:54;;;;;;;;;9.50;8.25;;;;;21.25;47.16;100842.06;5038420;28;45749;-88
2022/06/15 04:56:35;;;;;;;;;6.75;6.00;;;;;20.98;47.29;100802.50;5014628;28;46790;-90
2022/06/15 04:59:20;;;;;;;;;8.50;7.50;;;;;21.04;47.39;100815.97;5030329;28;46080;-89
2022/06/15 05:02:19;;;;;;;;;8.75;7.00;;;;;21.07;47.23;100822.78;5016830;28;45846;-87
2022/06/15 05:04:47;;;;;;;;;8.00;7.25;;;;;21.23;47.15;100846.72;5000823;28;45714;-86
2022/06/15 05:07:12;;;;;;;;;9.25;8.50;;;;;21.13;46.83;100830.09;5017084;28;45471;-88
2022/06/15 05:09:57;;;;;;;;;;;;;;;;;;;;;
2022/06/15 05:12:23;;;;;;;;;7.50;7.50;;;;;21.18;47.07;100841.91;5017724;28;72126;-88
2022/06/15 05:14:49;;;;;;;;;6.75;6.75;;;;;21.24;47.13;100851.91;5017913;28;45555;-89
2022/06/15 05:17:15;;;;;;;;;8.50;8.25;;;;;21.24;46.98;100848.41;5017523;28;45628;-89
2022/06/15 05:19:41;;;;;;;;;9.25;9.00;;;;;21.25;47.50;100847.41;5018253;28;47151;-89
2022/06/15 05:22:27;;;;;;;;;10.25;8.00;;;;;21.20;47.20;100839.09;5018846;28;45610;-87
2022/06/15 05:24:52;;;;;;;;;7.75;7.75;;;;;21.14;47.54;100823.75;5017438;28;45624;-88
2022/06/15 05:27:18;;;;;;;;;10.75;9.00;;;;;21.20;47.30;100834.59;5019242;28;46076;-88
2022/06/15 05:29:43;;;;;;;;;10.50;8.25;;;;;21.20;47.75;100839.94;5025623;28;47132;-88
2022/06/15 05:32:09;;;;;;;;;8.50;8.25;;;;;21.28;47.61;100845.22;5026170;28;45674;-90
2022/06/15 05:34:35;;;;;;;;;8.75;8.75;;;;;21.35;47.69;100850.69;5042287;28;45650;-89
2022/06/15 05:37:01;;;;;;;;;7.00;6.00;;;;;21.28;47.40;100839.03;5040020;28;47434;-88
2022/06/15 05:39:27;;;;;;;;;8.25;8.00;;;;;21.32;47.54;100843.84;5041096;28;47646;-88
2022/06/15 05:41:52;;;;;;;;;9.75;9.00;;;;;21.25;47.47;100832.25;5044355;28;45556;-88
2022/06/15 05:46:58;;;;;;;;;10.00;9.00;;;;;21.37;47.33;100851.34;5064224;28;45531;-87
2022/06/15 05:49:24;;;;;;;;;7.75;6.75;;;;;21.40;47.31;100851.00;5062940;28;45981;-89
2022/06/15 05:51:50;;;;;;;;;8.00;8.00;;;;;21.18;47.54;100809.09;5059637;28;45987;-89
2022/06/15 05:54:15;;;;;;;;;9.75;9.00;;;;;21.38;47.10;100836.19;5042567;28;45848;-88
2022/06/15 05:56:41;;;;;;;;;7.50;7.25;;;;;21.48;47.46;100853.66;5060476;28;47572;-89
2022/06/15 05:59:06;;;;;;;;;8.75;7.00;;;;;21.49;47.11;100849.13;5062814;28;45641;-90
2022/06/15 06:01:35;;;;;;;;;9.50;8.50;;;;;21.49;47.06;100849.94;5063784;28;45600;-86
2022/06/15 06:04:01;;;;;;;;;8.50;8.50;;;;;21.46;47.37;100834.31;5043389;28;45916;-90
2022/06/15 06:09:49;;;;;;;;;12.00;10.25;;;;;21.52;47.13;100846.13;5059019;28;46110;-89
2022/06/15 06:12:16;;;;;;;;;10.00;9.50;;;;;21.50;47.30;100843.63;5058264;28;45459;-88
2022/06/15 06:14:42;;;;;;;;;11.00;10.00;;;;;21.58;46.87;100850.75;5039722;28;45628;-88
2022/06/15 06:17:09;;;;;;;;;13.25;11.50;;;;;21.55;47.05;100835.09;5039573;28;48337;-86
2022/06/15 06:19:34;;;;;;;;;13.50;11.75;;;;;21.62;47.08;100847.56;5057775;28;46034;-85
2022/06/15 06:22:00;;;;;;;;;13.25;10.50;;;;;21.67;46.68;100858.53;5058682;28;45603;-88
2022/06/15 06:24:25;;;;;;;;;11.00;9.75;;;;;21.65;46.73;100843.69;5056932;28;45779;-87
2022/06/15 06:26:58;;;;;;;;;9.25;8.25;;;;;21.71;46.61;100851.00;5058401;28;45671;-87
2022/06/15 06:29:24;;;;;;;;;10.25;10.00;;;;;21.70;46.70;100841.38;5056222;28;46736;-87
2022/06/15 06:31:50;;;;;;;;;10.75;10.50;;;;;21.71;46.84;100845.69;5055974;28;45992;-86
2022/06/15 06:34:15;;;;;;;;;9.75;9.50;;;;;21.72;46.67;100845.50;5058601;28;45707;-86
2022/06/15 06:36:44;;;;;;;;;11.75;10.25;;;;;21.75;46.98;100842.47;5057895;28;46578;-88
2022/06/15 06:39:16;;;;;;;;;11.75;10.50;;;;;21.87;46.54;100858.09;5039347;28;46209;-88
2022/06/15 06:41:41;;;;;;;;;12.75;12.00;;;;;21.82;46.86;100855.13;5042572;28;45608;-85
2022/06/15 06:44:07;;;;;;;;;10.75;10.75;;;;;21.92;46.37;100861.06;5067032;28;45460;-79
2022/06/15 06:46:33;;;;;;;;;10.25;9.75;;;;;21.83;46.51;100836.28;5065821;28;46039;-81
2022/06/15 06:48:59;;;;;;;;;11.00;9.25;;;;;21.97;46.47;100854.22;5060123;28;45472;-82
2022/06/15 06:51:26;;;;;;;;;11.25;10.75;;;;;21.88;45.62;100843.75;5054840;28;45512;-82
2022/06/15 06:53:51;;;;;;;;;9.25;8.75;;;;;21.99;45.69;100862.88;5055551;28;45793;-83
2022/06/15 06:56:16;;;;;;;;;12.00;9.00;;;;;22.02;45.67;100853.72;5055070;28;45621;-83
2022/06/15 06:58:42;;;;;;;;;9.25;9.00;;;;;21.99;45.92;100849.53;5055670;28;46357;-84
2022/06/15 07:01:08;;;;;;;;;7.25;6.50;;;;;22.08;45.43;100858.31;5055355;28;45629;-83
2022/06/15 07:03:33;;;;;;;;;10.50;10.25;;;;;22.12;45.61;100862.31;5053940;28;45918;-80
2022/06/15 07:06:01;;;;;;;;;11.00;10.00;;;;;22.17;45.36;100866.09;5055381;28;46887;-82
2022/06/15 07:08:26;;;;;;;;;11.25;9.25;;;;;22.24;45.83;100868.06;5055779;28;46280;-82
2022/06/15 07:10:52;;;;;;;;;10.00;10.00;;;;;22.22;45.23;100851.38;5055781;28;45515;-82
2022/06/15 07:13:17;;;;;;;;;10.50;10.00;;;;;22.24;45.17;100854.72;5056242;28;45536;-81
2022/06/15 07:15:43;;;;;;;;;11.50;9.00;;;;;22.22;45.17;100849.56;5055719;28;46614;-81
2022/06/15 07:18:08;;;;;;;;;10.00;10.00;;;;;22.28;44.73;100846.16;5055674;28;45688;-80
2022/06/15 07:20:34;;;;;;;;;10.25;9.00;;;;;22.40;44.77;100863.41;5055373;28;45728;-81
2022/06/15 07:22:59;;;;;;;;;7.75;7.50;;;;;22.35;44.93;100852.44;5054407;28;45517;-80
2022/06/15 07:25:25;;;;;;;;;9.50;8.25;;;;;22.35;44.72;100855.09;5055028;28;46273;-80
2022/06/15 07:27:51;;;;;;;;;13.00;10.25;;;;;22.49;44.89;100874.88;5055354;28;46264;-82
2022/06/15 07:30:20;;;;;;;;;9.75;9.75;;;;;22.54;44.53;100881.34;5055010;28;45600;-81
2022/06/15 07:32:46;;;;;;;;;9.50;9.50;;;;;22.57;44.82;100874.78;5036979;28;45809;-81
2022/06/15 07:35:21;;;;;;;;;9.75;9.75;;;;;22.50;44.87;100856.00;5054927;28;45621;-81
2022/06/15 07:37:46;;;;;;;;;11.00;9.00;;;;;22.54;44.62;100859.13;5055212;28;45615;-80
2022/06/15 07:40:13;;;;;;;;;9.25;8.00;;;;;22.55;44.21;100852.78;5054873;28;45586;-81
2022/06/15 07:42:39;;;;;;;;;9.25;9.00;;;;;22.72;44.46;100867.69;5036297;28;45574;-81
2022/06/15 07:45:15;;;;;;;;;13.00;12.00;;;;;22.74;44.70;100870.16;5056206;27;1324013;-82
2022/06/15 07:50:25;;;;;;;;;9.75;9.00;;;;;22.84;43.59;100881.41;5088200;27;46026;-81
2022/06/15 07:52:53;;;;;;;;;10.25;10.00;;;;;22.88;43.34;100877.38;5083875;27;46687;-80
2022/06/15 07:55:25;;;;;;;;;9.50;8.25;;;;;22.93;43.69;100875.00;5088781;27;45643;-80
2022/06/15 07:57:52;;;;;;;;;10.75;8.25;;;;;22.96;44.05;100879.97;5085422;27;45768;-80
2022/06/15 08:00:20;;;;;;;;;8.50;8.00;;;;;23.01;43.89;100882.91;5085407;27;45844;-83
2022/06/15 08:02:45;;;;;;;;;9.50;8.50;;;;;22.97;43.80;100862.91;5069869;27;47897;-83
2022/06/15 08:05:11;;;;;;;;;10.75;10.50;;;;;23.04;43.52;100863.03;5070282;27;46370;-82
2022/06/15 08:07:37;;;;;;;;;11.00;9.50;;;;;23.09;43.20;100864.13;5087544;27;45566;-83
2022/06/15 08:10:04;;;;;;;;;8.50;8.50;;;;;23.16;43.47;100867.72;5087504;27;45582;-84
2022/06/15 08:12:30;;;;;;;;;9.00;7.50;;;;;23.20;43.38;100862.84;5085449;27;46502;-82
2022/06/15 08:14:58;;;;;;;;;9.00;8.75;;;;;23.27;43.23;100869.09;5069515;27;47161;-82
2022/06/15 08:17:26;;;;;;;;;8.50;8.50;;;;;23.32;42.93;100872.06;5083905;27;46152;-82
2022/06/15 08:19:57;;;;;;;;;8.00;7.25;;;;;23.35;42.33;100867.16;5080854;27;46386;-83
2022/06/15 08:22:23;;;;;;;;;9.00;9.00;;;;;23.40;42.73;100870.09;5081738;27;45789;-83
2022/06/15 08:24:49;;;;;;;;;7.75;7.50;;;;;23.39;42.19;100848.88;5088315;27;45769;-83
2022/06/15 08:27:19;;;;;;;;;9.00;8.75;;;;;23.41;42.12;100850.38;5088592;27;45943;-83
2022/06/15 08:29:46;;;;;;;;;8.00;7.75;;;;;23.44;42.54;100844.66;5085924;27;46118;-82
2022/06/15 08:32:13;;;;;;;;;8.00;7.25;;;;;23.51;42.49;100846.59;5086551;27;45752;-83
2022/06/15 08:34:39;;;;;;;;;8.00;8.00;;;;;23.62;42.52;100852.31;5081210;27;46103;-83
2022/06/15 08:37:11;;;;;;;;;9.50;8.50;;;;;23.62;42.33;100840.78;5084556;27;45678;-79
2022/06/15 08:39:37;;;;;;;;;9.25;8.25;;;;;23.75;41.91;100854.31;5086936;27;45577;-82
2022/06/15 08:42:02;;;;;;;;;8.25;7.25;;;;;23.86;42.11;100858.34;5084820;27;46552;-82
2022/06/15 08:45:01;;;;;;;;;8.75;8.75;;;;;23.90;42.26;100863.13;5085875;27;46045;-82
2022/06/15 08:47:36;;;;;;;;;9.00;8.00;;;;;24.00;42.24;100858.28;5084983;27;46095;-81
2022/06/15 08:50:19;;;;;;;;;6.25;6.25;;;;;24.06;41.60;100849.50;5086063;27;45604;-81
2022/06/15 08:52:52;;;;;;;;;8.75;8.50;;;;;24.12;41.44;100847.91;5064025;27;47520;-82
2022/06/15 08:55:24;;;;;;;;;9.75;9.25;;;;;24.17;41.18;100857.06;5071121;27;45987;-81
2022/06/15 08:58:00;;;;;;;;;8.25;8.25;;;;;24.18;40.81;100858.69;5073079;28;46177;-82
2022/06/15 09:00:34;;;;;;;;;9.00;7.25;;;;;24.19;41.55;100848.81;5073258;28;45728;-82
2022/06/15 09:03:28;;;;;;;;;8.75;8.75;;;;;24.33;40.11;100864.00;5053711;28;47013;-83
2022/06/15 09:06:00;;;;;;;;;8.00;7.00;;;;;24.38;41.02;100856.22;5070501;28;46258;-82
2022/06/15 09:09:02;;;;;;;;;8.00;7.00;;;;;24.39;39.71;100849.00;5073526;28;45850;-80
2022/06/15 09:15:03;;;;;;;;;9.25;9.25;;;;;24.53;39.75;100850.78;5061794;28;46257;-82
2022/06/15 09:17:29;;;;;;;;;8.25;8.00;;;;;24.56;39.66;100861.13;5072770;28;45722;-81
2022/06/15 09:20:02;;;;;;;;;6.75;6.00;;;;;24.55;39.95;100841.53;5072722;28;45419;-82
2022/06/15 09:22:44;;;;;;;;;7.75;7.50;;;;;24.71;39.05;100858.34;5072142;28;45733;-81
2022/06/15 09:25:21;;;;;;;;;8.00;8.00;;;;;24.80;38.86;100866.03;5072643;28;45941;-81
2022/06/15 09:28:30;;;;;;;;;8.25;7.75;;;;;24.87;38.87;100868.78;5066415;28;45994;-83
2022/06/15 09:31:02;;;;;;;;;8.25;6.75;;;;;24.93;38.69;100863.50;4990365;28;45684;-81
2022/06/15 09:33:36;;;;;;;;;9.50;8.50;;;;;24.97;38.62;100863.91;4988582;28;45658;-81
2022/06/15 09:36:16;;;;;;;;;8.25;8.25;;;;;25.03;38.84;100857.78;4991395;28;46161;-81
2022/06/15 09:38:42;;;;;;;;;9.25;9.00;;;;;25.02;38.75;100837.34;4990645;28;46130;-81
2022/06/15 09:41:39;;;;;;;;;8.25;7.75;;;;;25.18;38.23;100858.47;4990127;28;45749;-81
2022/06/15 09:44:29;;;;;;;;;8.00;8.00;;;;;25.23;38.51;100863.25;4979986;28;45700;-81
2022/06/15 09:47:04;;;;;;;;;7.25;7.25;;;;;25.27;38.07;100853.75;4990155;28;46712;-81
2022/06/15 09:49:39;;;;;;;;;8.75;7.50;;;;;25.31;38.29;100855.88;4990152;28;46170;-81
2022/06/15 09:52:22;;;;;;;;;6.75;6.00;;;;;25.27;37.43;100843.03;4990144;28;46343;-82
2022/06/15 09:55:17;;;;;;;;;9.00;8.50;;;;;25.40;38.20;100849.31;4972930;28;46074;-82
2022/06/15 09:57:43;;;;;;;;;7.75;7.00;;;;;25.45;38.08;100838.78;4973191;28;45779;-83
2022/06/15 10:00:14;;;;;;;;;8.75;7.75;;;;;25.44;37.83;100831.75;4991457;28;46290;-82
2022/06/15 10:02:45;;;;;;;;;9.50;8.50;;;;;25.58;37.75;100843.44;4990735;28;46963;-83
2022/06/15 10:05:34;;;;;;;;;9.00;8.75;;;;;25.56;37.65;100841.97;4965264;28;45919;-83
2022/06/15 10:08:04;;;;;;;;;9.00;8.25;;;;;25.65;38.36;100841.56;5070814;28;47458;-80
2022/06/15 10:10:54;;;;;;;;;9.00;8.75;;;;;25.68;37.86;100843.88;5061288;28;46501;-83
2022/06/15 10:13:20;;;;;;;;;10.50;10.50;;;;;25.76;37.82;100853.59;5063896;28;45719;-82
2022/06/15 10:15:58;;;;;;;;;11.25;10.00;;;;;25.76;37.32;100853.59;5070350;28;45933;-82
2022/06/15 10:18:33;;;;;;;;;9.00;9.00;;;;;25.82;37.98;100848.25;5069103;28;46102;-82
2022/06/15 10:21:13;;;;;;;;;11.00;10.00;;;;;25.85;37.97;100853.22;5071613;27;47015;-83
2022/06/15 10:23:49;;;;;;;;;9.00;8.00;;;;;25.94;38.29;100858.38;5068895;27;47164;-82
2022/06/15 10:26:26;;;;;;;;;8.50;8.25;;;;;25.96;38.11;100850.97;5074247;28;45775;-82
2022/06/15 10:28:52;;;;;;;;;9.75;9.50;;;;;25.97;37.86;100852.59;5069500;28;46652;-81
2022/06/15 10:31:26;;;;;;;;;10.00;10.00;;;;;26.03;38.15;100841.03;5070424;27;46197;-81
2022/06/15 10:33:54;;;;;;;;;8.25;8.00;;;;;26.04;37.35;100846.22;5072071;27;45665;-80
2022/06/15 10:36:30;;;;;;;;;9.25;9.00;;;;;26.10;37.51;100847.28;5070630;27;45753;-79
2022/06/15 10:39:03;;;;;;;;;9.75;9.25;;;;;26.12;36.88;100848.72;5069320;28;45682;-80
2022/06/15 10:41:45;;;;;;;;;12.75;11.00;;;;;26.17;36.44;100858.84;5072578;28;45985;-78
2022/06/15 10:44:15;;;;;;;;;9.25;8.25;;;;;26.22;37.20;100848.31;5073201;28;45519;-80
2022/06/15 10:46:53;;;;;;;;;9.00;8.50;;;;;26.26;36.98;100857.66;5072307;28;45840;-82
2022/06/15 10:49:21;;;;;;;;;10.75;9.25;;;;;26.30;37.14;100859.72;5072749;28;45574;-80
2022/06/15 10:51:47;;;;;;;;;9.50;8.75;;;;;26.36;37.03;100852.69;5072812;28;45872;-79
2022/06/15 10:54:33;;;;;;;;;8.00;8.00;;;;;26.43;37.06;100853.53;5068009;28;45835;-79
2022/06/15 11:03:22;;;;;;;;;8.25;8.00;;;;;26.52;36.58;100848.75;5063903;28;45944;-80
2022/06/15 11:05:50;;;;;;;;;8.75;8.00;;;;;26.61;37.02;100861.00;5078466;28;45972;-80
2022/06/15 11:08:20;;;;;;;;;9.75;8.00;;;;;26.68;37.18;100856.41;5082432;28;45751;-80
2022/06/15 11:10:49;;;;;;;;;9.00;9.00;;;;;26.72;36.78;100854.97;5064611;28;45639;-81
2022/06/15 11:13:34;;;;;;;;;10.00;9.75;;;;;26.78;35.40;100853.28;5072859;28;46802;-81
2022/06/15 11:19:56;;;;;;;;;4.00;4.00;;;;;26.86;35.50;100853.09;4991455;28;45975;-81
2022/06/15 11:22:24;;;;;;;;;9.25;9.00;;;;;26.91;35.46;100856.00;5007999;28;45818;-80
2022/06/15 11:25:13;;;;;;;;;10.00;9.75;;;;;26.96;34.63;100851.66;5009578;28;45861;-81
2022/06/15 11:27:44;;;;;;;;;10.00;10.00;;;;;26.97;35.01;100845.25;5009774;28;45677;-80
2022/06/15 11:30:13;;;;;;;;;10.50;9.50;;;;;27.06;35.81;100859.28;5008194;28;45704;-80
2022/06/15 11:32:56;;;;;;;;;10.25;8.00;;;;;27.08;35.28;100838.38;4993279;28;46764;-80
2022/06/15 11:35:37;;;;;;;;;9.50;8.50;;;;;27.15;35.47;100848.06;4995496;28;45984;-81
2022/06/15 11:38:17;;;;;;;;;11.50;9.50;;;;;27.22;34.47;100853.44;5009684;28;45620;-81
2022/06/15 11:40:57;;;;;;;;;10.00;9.25;;;;;27.22;34.92;100831.09;4991437;28;45850;-80
2022/06/15 11:43:32;;;;;;;;;8.00;8.00;;;;;27.33;34.51;100844.72;4993797;28;46892;-80
2022/06/15 11:46:09;;;;;;;;;9.75;9.00;;;;;27.39;33.72;100843.88;5009183;28;46355;-81
2022/06/15 11:48:48;;;;;;;;;9.25;9.25;;;;;27.34;33.26;100822.16;4996857;28;45910;-80
2022/06/15 11:51:51;;;;;;;;;10.50;10.00;;;;;27.45;34.28;100839.50;5065404;28;46223;-80
2022/06/15 11:54:34;;;;;;;;;9.00;9.00;;;;;27.53;34.30;100842.78;5071347;28;45622;-80
2022/06/15 11:57:05;;;;;;;;;10.00;10.00;;;;;27.61;33.69;100846.28;5066387;28;46229;-81
2022/06/15 11:59:51;;;;;;;;;10.50;9.75;;;;;27.65;33.63;100850.19;5071695;28;45779;-81
2022/06/15 12:02:50;;;;;;;;;10.50;10.00;;;;;27.70;33.40;100851.22;5070867;28;45770;-80
2022/06/15 12:05:32;;;;;;;;;10.25;9.75;;;;;27.67;32.99;100837.34;5071606;28;45549;-80
2022/06/15 12:08:05;;;;;;;;;10.00;10.00;;;;;27.80;33.10;100848.88;5053712;28;48079;-80
2022/06/15 12:10:49;;;;;;;;;11.00;10.00;;;;;27.85;33.70;100843.69;5072315;28;45677;-80
2022/06/15 12:13:18;;;;;;;;;8.50;8.50;;;;;27.91;33.71;100847.34;5061611;28;46052;-80
2022/06/15 12:16:02;;;;;;;;;9.75;9.00;;;;;27.95;33.46;100843.22;5053195;28;48778;-80
2022/06/15 12:19:03;;;;;;;;;10.50;10.00;;;;;28.02;32.83;100843.97;5071162;28;46309;-80
2022/06/15 12:21:34;;;;;;;;;11.00;10.00;;;;;28.07;32.42;100841.44;4950081;28;45673;-81
2022/06/15 12:24:21;;;;;;;;;9.75;9.75;;;;;28.11;32.25;100831.09;4954490;28;45710;-80
2022/06/15 12:26:50;;;;;;;;;10.75;10.00;;;;;28.12;32.40;100836.28;4969586;28;46732;-80
2022/06/15 12:29:20;;;;;;;;;10.25;10.25;;;;;28.18;32.92;100831.91;4958500;28;45982;-80
2022/06/15 12:31:54;;;;;;;;;11.25;10.75;;;;;28.20;31.89;100830.63;4971220;28;45719;-80
2022/06/15 12:34:54;;;;;;;;;10.75;9.75;;;;;28.23;31.94;100830.16;4962355;28;46173;-80
2022/06/15 12:37:30;;;;;;;;;9.75;9.00;;;;;28.30;32.05;100830.13;4966375;28;45960;-80
2022/06/15 12:40:12;;;;;;;;;10.50;10.50;;;;;28.27;32.15;100822.50;4966306;28;46331;-80